createdAt,value
2022-12-07T00:01:46.663Z,10.23
2022-12-07T00:04:16.650Z,10.32
2022-12-07T00:06:46.856Z,10.07
2022-12-07T00:09:17.269Z,9.70
2022-12-07T00:11:50.678Z,9.98
2022-12-07T00:16:50.737Z,9.50
2022-12-07T00:19:19.994Z,9.70
2022-12-07T00:21:49.279Z,9.60
2022-12-07T00:24:18.173Z,8.90
2022-12-07T00:26:47.492Z,9.20
2022-12-07T00:29:23.907Z,9.50
2022-12-07T00:31:52.845Z,9.15
2022-12-07T00:34:22.520Z,8.82
2022-12-07T00:36:52.042Z,9.00
2022-12-07T00:39:21.316Z,9.13
2022-12-07T00:41:50.710Z,9.40
2022-12-07T00:44:20.033Z,9.23
2022-12-07T00:46:48.913Z,9.38
2022-12-07T00:49:18.108Z,9.77
2022-12-07T00:51:47.411Z,9.73
2022-12-07T00:54:16.674Z,9.20
2022-12-07T00:56:45.572Z,9.32
2022-12-07T00:59:16.618Z,9.30
2022-12-07T01:01:45.442Z,10.55
2022-12-07T01:04:14.235Z,9.15
2022-12-07T01:06:43.254Z,9.50
2022-12-07T01:09:12.096Z,9.10
2022-12-07T01:11:41.375Z,9.88
2022-12-07T01:14:11.359Z,9.82
2022-12-07T01:16:41.232Z,9.70
2022-12-07T01:19:10.633Z,9.60
2022-12-07T01:21:42.612Z,9.35
2022-12-07T01:24:12.227Z,9.30
2022-12-07T01:26:41.135Z,9.80
2022-12-07T01:29:10.372Z,9.55
2022-12-07T01:31:39.532Z,9.70
2022-12-07T01:34:08.443Z,9.65
2022-12-07T01:36:38.669Z,9.90
2022-12-07T01:39:08.533Z,9.90
2022-12-07T01:41:41.814Z,10.48
2022-12-07T01:44:22.812Z,9.43
2022-12-07T01:46:52.306Z,10.50
2022-12-07T01:49:28.915Z,10.77
2022-12-07T01:52:11.638Z,10.15
2022-12-07T01:54:41.462Z,9.95
2022-12-07T01:57:11.016Z,10.27
2022-12-07T01:59:40.669Z,10.45
2022-12-07T02:02:22.551Z,10.68
2022-12-07T02:04:53.866Z,11.50
2022-12-07T02:07:23.597Z,11.45
2022-12-07T02:09:52.947Z,11.68
2022-12-07T02:12:30.698Z,12.20
2022-12-07T02:15:01.023Z,12.07
2022-12-07T02:17:39.966Z,12.50
2022-12-07T02:20:21.125Z,11.65
2022-12-07T02:23:14.693Z,12.20
2022-12-07T02:26:35.126Z,11.00
2022-12-07T02:29:30.104Z,11.68
2022-12-07T02:32:06.556Z,11.27
2022-12-07T02:34:53.317Z,11.48
2022-12-07T02:37:42.790Z,12.60
2022-12-07T02:40:28.900Z,11.57
2022-12-07T02:43:05.206Z,11.75
2022-12-07T02:45:34.076Z,11.13
2022-12-07T02:48:05.365Z,12.40
2022-12-07T02:50:34.083Z,13.00
2022-12-07T02:53:06.163Z,12.10
2022-12-07T02:55:38.910Z,12.50
2022-12-07T02:59:03.635Z,12.23
2022-12-07T03:01:51.818Z,11.90
2022-12-07T03:04:36.156Z,12.63
2022-12-07T03:07:28.212Z,11.60
2022-12-07T03:10:23.203Z,11.95
2022-12-07T03:13:05.215Z,12.32
2022-12-07T03:15:54.893Z,12.05
2022-12-07T03:18:25.004Z,12.52
2022-12-07T03:20:55.726Z,13.32
2022-12-07T03:23:24.685Z,12.35
2022-12-07T03:26:00.431Z,62.97
2022-12-07T03:28:35.651Z,31.55
2022-12-07T03:31:24.888Z,29.75
2022-12-07T03:34:10.522Z,28.40
2022-12-07T03:36:49.608Z,29.73
2022-12-07T03:39:24.907Z,30.92
2022-12-07T03:41:57.437Z,29.90
2022-12-07T03:44:27.324Z,29.73
2022-12-07T03:47:29.602Z,27.20
2022-12-07T03:50:06.431Z,26.15
2022-12-07T03:52:38.412Z,24.65
2022-12-07T03:55:21.196Z,24.67
2022-12-07T03:57:50.920Z,24.17
2022-12-07T04:00:19.872Z,21.90
2022-12-07T04:02:49.090Z,21.98
2022-12-07T04:05:18.348Z,22.10
2022-12-07T04:07:47.952Z,21.50
2022-12-07T04:10:16.942Z,20.02
2022-12-07T04:12:46.745Z,20.10
2022-12-07T04:15:16.131Z,19.92
2022-12-07T04:17:45.793Z,19.92
2022-12-07T04:20:15.596Z,20.45
2022-12-07T04:22:45.002Z,19.63
2022-12-07T04:25:14.327Z,19.52
2022-12-07T04:27:43.211Z,19.83
2022-12-07T04:30:12.336Z,20.27
2022-12-07T04:32:41.202Z,20.33
2022-12-07T04:35:10.941Z,18.92
2022-12-07T04:37:41.748Z,17.95
2022-12-07T04:40:12.678Z,19.10
2022-12-07T04:42:41.571Z,18.95
2022-12-07T04:45:11.329Z,18.83
2022-12-07T04:47:40.223Z,19.58
2022-12-07T04:50:09.970Z,19.95
2022-12-07T04:52:39.037Z,19.65
2022-12-07T04:55:11.182Z,20.58
2022-12-07T04:57:39.974Z,19.98
2022-12-07T05:00:09.796Z,20.17
2022-12-07T05:02:39.425Z,20.52
2022-12-07T05:05:08.856Z,20.50
2022-12-07T05:07:38.050Z,19.58
2022-12-07T05:10:09.466Z,20.10
2022-12-07T05:12:39.181Z,18.88
2022-12-07T05:15:09.264Z,19.63
2022-12-07T05:17:38.350Z,19.50
2022-12-07T05:20:08.437Z,18.65
2022-12-07T05:22:37.856Z,19.17
2022-12-07T05:25:06.968Z,18.90
2022-12-07T05:27:36.169Z,18.20
2022-12-07T05:30:06.240Z,18.83
2022-12-07T05:32:35.053Z,18.90
2022-12-07T05:35:03.834Z,18.35
2022-12-07T05:37:33.628Z,19.08
2022-12-07T05:40:02.681Z,19.52
2022-12-07T05:42:32.114Z,18.75
2022-12-07T05:45:01.475Z,18.45
2022-12-07T05:47:30.496Z,18.42
2022-12-07T05:49:59.963Z,18.70
2022-12-07T05:52:29.073Z,18.38
2022-12-07T05:54:58.422Z,18.50
2022-12-07T05:57:27.335Z,18.13
2022-12-07T05:59:56.692Z,19.35
2022-12-07T06:02:30.735Z,18.08
2022-12-07T06:04:59.587Z,18.30
2022-12-07T06:07:28.799Z,18.33
2022-12-07T06:09:58.218Z,18.45
2022-12-07T06:12:36.318Z,18.38
2022-12-07T06:15:09.390Z,19.00
2022-12-07T06:17:39.568Z,18.55
2022-12-07T06:20:09.001Z,18.17
2022-12-07T06:22:40.101Z,18.00
2022-12-07T06:25:09.500Z,17.77
2022-12-07T06:27:38.770Z,16.90
2022-12-07T06:30:10.233Z,18.52
2022-12-07T06:32:39.381Z,17.52
2022-12-07T06:35:09.066Z,17.13
2022-12-07T06:37:38.035Z,15.10
2022-12-07T06:40:08.274Z,15.60
2022-12-07T06:42:40.861Z,15.05
2022-12-07T06:45:10.481Z,16.10
2022-12-07T06:47:41.707Z,17.08
2022-12-07T06:50:14.438Z,16.92
2022-12-07T06:52:44.399Z,15.23
2022-12-07T06:55:13.159Z,15.43
2022-12-07T06:57:42.464Z,15.88
2022-12-07T07:00:15.661Z,13.90
2022-12-07T07:02:49.852Z,13.45
2022-12-07T07:05:20.475Z,13.98
2022-12-07T07:08:20.700Z,14.93
2022-12-07T07:10:42.508Z,14.00
2022-12-07T07:13:19.124Z,13.90
2022-12-07T07:15:48.153Z,13.32
2022-12-07T07:18:17.445Z,12.57
2022-12-07T07:20:49.712Z,12.38
2022-12-07T07:23:21.032Z,11.90
2022-12-07T07:25:50.217Z,12.52
2022-12-07T07:28:22.171Z,12.68
2022-12-07T07:30:53.890Z,11.70
2022-12-07T07:33:23.211Z,11.35
2022-12-07T07:35:52.024Z,12.07
2022-12-07T07:38:21.181Z,12.32
2022-12-07T07:40:50.326Z,12.63
2022-12-07T07:43:23.281Z,12.82
2022-12-07T07:45:52.981Z,11.80
2022-12-07T07:48:22.461Z,12.07
2022-12-07T07:50:51.719Z,12.07
2022-12-07T07:53:20.586Z,12.40
2022-12-07T07:55:55.096Z,12.13
2022-12-07T07:58:24.300Z,12.55
2022-12-07T08:00:53.346Z,12.95
2022-12-07T08:03:22.958Z,12.68
2022-12-07T08:06:13.191Z,11.68
2022-12-07T08:08:44.502Z,12.23
2022-12-07T08:11:13.858Z,12.60
2022-12-07T08:13:42.932Z,11.70
2022-12-07T08:16:12.827Z,11.57
2022-12-07T08:18:42.473Z,11.68
2022-12-07T08:21:16.176Z,11.75
2022-12-07T08:23:45.732Z,12.27
2022-12-07T08:26:17.598Z,12.23
2022-12-07T08:28:47.211Z,11.77
2022-12-07T08:31:18.659Z,11.60
2022-12-07T08:33:48.619Z,10.50
2022-12-07T08:36:18.812Z,10.05
2022-12-07T08:39:22.699Z,9.70
2022-12-07T08:41:38.139Z,9.45
2022-12-07T08:44:07.670Z,9.02
2022-12-07T08:46:58.907Z,8.30
2022-12-07T08:49:33.785Z,7.80
2022-12-07T08:52:03.266Z,7.95
2022-12-07T08:54:32.675Z,7.85
2022-12-07T08:57:01.595Z,7.72
2022-12-07T08:59:30.878Z,7.25
2022-12-07T09:02:07.409Z,7.25
2022-12-07T09:04:39.648Z,7.55
2022-12-07T09:07:08.860Z,7.28
2022-12-07T09:09:40.711Z,7.50
2022-12-07T09:12:09.588Z,7.25
2022-12-07T09:14:38.857Z,7.18
2022-12-07T09:17:09.108Z,6.43
2022-12-07T09:19:38.222Z,6.60
2022-12-07T09:22:07.471Z,6.30
2022-12-07T09:24:36.775Z,6.97
2022-12-07T09:27:05.737Z,6.88
2022-12-07T09:29:34.593Z,6.63
2022-12-07T09:32:09.836Z,7.05
2022-12-07T09:34:40.392Z,6.13
2022-12-07T09:37:10.118Z,6.35
2022-12-07T09:39:48.221Z,6.80
2022-12-07T09:42:31.940Z,6.43
2022-12-07T09:45:01.253Z,6.15
2022-12-07T09:47:30.187Z,6.60
2022-12-07T09:50:06.835Z,6.03
2022-12-07T09:52:38.529Z,6.47
2022-12-07T09:55:46.455Z,6.53
2022-12-07T09:58:24.875Z,6.00
2022-12-07T10:00:55.832Z,5.90
2022-12-07T10:03:24.559Z,6.25
2022-12-07T10:05:54.320Z,5.80
2022-12-07T10:08:23.435Z,5.88
2022-12-07T10:11:00.265Z,6.40
2022-12-07T10:13:50.792Z,6.07
2022-12-07T10:16:32.292Z,5.53
2022-12-07T10:19:19.152Z,5.80
2022-12-07T10:22:06.423Z,5.93
2022-12-07T10:24:35.356Z,6.55
2022-12-07T10:27:06.642Z,6.18
2022-12-07T10:29:38.633Z,6.68
2022-12-07T10:32:16.865Z,5.75
2022-12-07T10:34:51.987Z,6.20
2022-12-07T10:37:22.386Z,6.00
2022-12-07T10:40:00.278Z,6.53
2022-12-07T10:42:32.864Z,6.30
2022-12-07T10:45:19.197Z,6.45
2022-12-07T10:47:56.757Z,6.50
2022-12-07T10:50:47.335Z,6.38
2022-12-07T10:53:28.864Z,6.85
2022-12-07T10:56:04.781Z,7.47
2022-12-07T10:58:47.065Z,6.90
2022-12-07T11:01:42.138Z,6.80
2022-12-07T11:04:16.675Z,7.22
2022-12-07T11:06:45.436Z,7.25
2022-12-07T11:09:45.026Z,7.70
2022-12-07T11:12:28.085Z,8.02
2022-12-07T11:15:23.138Z,7.45
2022-12-07T11:18:26.693Z,7.72
2022-12-07T11:21:27.037Z,7.38
2022-12-07T11:24:22.294Z,8.43
2022-12-07T11:27:13.012Z,9.23
2022-12-07T11:29:42.586Z,8.98
2022-12-07T11:32:37.575Z,8.52
2022-12-07T11:35:22.978Z,8.55
2022-12-07T11:37:56.551Z,8.73
2022-12-07T11:40:29.797Z,9.30
2022-12-07T11:43:05.421Z,8.98
2022-12-07T11:45:36.158Z,9.55
2022-12-07T11:48:33.715Z,9.02
2022-12-07T11:51:03.870Z,9.70
2022-12-07T11:53:44.581Z,9.32
2022-12-07T11:56:13.437Z,9.30
2022-12-07T11:58:57.590Z,9.52
2022-12-07T12:04:12.864Z,9.55
2022-12-07T12:06:43.686Z,9.90
2022-12-07T12:15:33.520Z,9.82
2022-12-07T12:18:19.771Z,10.52
2022-12-07T12:20:48.668Z,10.75
2022-12-07T12:23:35.980Z,10.32
2022-12-07T12:26:06.141Z,10.20
2022-12-07T12:28:51.643Z,10.25
2022-12-07T12:31:23.472Z,10.95
2022-12-07T12:33:53.673Z,10.50
2022-12-07T12:36:25.687Z,10.68
2022-12-07T12:39:01.427Z,11.07
2022-12-07T12:41:54.536Z,11.52
2022-12-07T12:44:24.407Z,10.35
2022-12-07T12:47:07.145Z,11.23
2022-12-07T12:49:41.167Z,11.25
2022-12-07T12:52:32.564Z,11.35
2022-12-07T12:55:14.613Z,11.75
2022-12-07T12:57:43.384Z,11.35
2022-12-07T13:00:25.325Z,11.95
2022-12-07T13:02:54.836Z,12.15
2022-12-07T13:05:31.458Z,11.70
2022-12-07T13:08:04.952Z,12.65
2022-12-07T13:13:21.161Z,12.75
2022-12-07T13:15:53.037Z,13.15
2022-12-07T13:18:37.968Z,12.65
2022-12-07T13:21:10.237Z,13.27
2022-12-07T13:23:49.619Z,12.98
2022-12-07T13:26:41.646Z,13.43
2022-12-07T13:29:17.657Z,12.77
2022-12-07T13:31:54.464Z,13.15
2022-12-07T13:34:39.885Z,13.50
2022-12-07T13:37:15.455Z,13.80
2022-12-07T13:39:52.624Z,14.45
2022-12-07T13:42:32.114Z,15.50
2022-12-07T13:45:02.659Z,14.57
2022-12-07T13:47:46.583Z,15.00
2022-12-07T13:52:57.859Z,16.25
2022-12-07T13:55:27.340Z,17.00
2022-12-07T13:57:56.474Z,17.40
2022-12-07T14:00:27.289Z,16.67
2022-12-07T14:03:07.541Z,18.10
2022-12-07T14:05:37.764Z,18.80
2022-12-07T14:08:13.305Z,19.05
2022-12-07T14:10:52.488Z,19.30
2022-12-07T14:13:43.101Z,20.05
2022-12-07T14:16:27.544Z,21.00
2022-12-07T14:18:58.105Z,21.05
2022-12-07T14:21:29.129Z,22.10
2022-12-07T14:24:24.858Z,22.35
2022-12-07T14:26:53.669Z,21.27
2022-12-07T14:29:32.021Z,22.33
2022-12-07T14:32:21.581Z,22.33
2022-12-07T14:35:02.383Z,23.10
2022-12-07T14:37:32.421Z,23.25
2022-12-07T14:40:01.301Z,22.90
2022-12-07T14:42:31.474Z,22.02
2022-12-07T14:45:01.172Z,21.30
2022-12-07T14:50:20.945Z,20.85
2022-12-07T14:55:52.591Z,21.33
2022-12-07T14:58:22.155Z,21.55
2022-12-07T15:00:51.484Z,21.48
2022-12-07T15:03:20.992Z,21.08
2022-12-07T15:05:49.913Z,22.08
2022-12-07T15:08:19.918Z,22.23
2022-12-07T15:10:48.957Z,22.92
2022-12-07T15:13:37.572Z,24.30
2022-12-07T15:16:07.415Z,24.67
2022-12-07T15:18:36.570Z,22.63
2022-12-07T15:21:07.521Z,24.27
2022-12-07T15:23:37.370Z,25.08
2022-12-07T15:26:06.309Z,25.48
2022-12-07T15:28:35.378Z,25.45
2022-12-07T15:31:31.921Z,25.88
2022-12-07T15:33:53.120Z,24.55
2022-12-07T15:36:32.059Z,24.17
2022-12-07T15:39:16.444Z,25.42
2022-12-07T15:41:46.053Z,24.50
2022-12-07T15:44:33.525Z,25.13
2022-12-07T15:47:02.362Z,24.42
2022-12-07T15:49:31.692Z,25.52
2022-12-07T15:52:00.619Z,24.77
2022-12-07T15:54:30.003Z,25.45
2022-12-07T15:56:58.789Z,25.10
2022-12-07T15:59:28.693Z,25.35
2022-12-07T16:01:58.658Z,24.85
2022-12-07T16:04:30.516Z,24.67
2022-12-07T16:06:59.867Z,25.40
2022-12-07T16:09:29.169Z,25.63
2022-12-07T16:11:58.064Z,26.58
2022-12-07T16:14:26.860Z,26.90
2022-12-07T16:16:56.559Z,27.55
2022-12-07T16:19:25.666Z,26.30
2022-12-07T16:21:54.446Z,27.25
2022-12-07T16:24:23.202Z,26.75
2022-12-07T16:26:52.556Z,27.33
2022-12-07T16:29:22.018Z,27.35
2022-12-07T16:31:51.465Z,27.05
2022-12-07T16:34:20.590Z,26.90
2022-12-07T16:37:05.750Z,27.25
2022-12-07T16:39:35.723Z,27.77
2022-12-07T16:42:04.937Z,27.90
2022-12-07T16:44:33.882Z,27.80
2022-12-07T16:47:04.084Z,27.27
2022-12-07T16:49:33.671Z,27.55
2022-12-07T16:52:19.183Z,28.73
2022-12-07T16:54:50.081Z,27.60
2022-12-07T16:57:22.915Z,27.55
2022-12-07T16:59:56.438Z,28.15
2022-12-07T17:02:25.902Z,28.23
2022-12-07T17:04:55.267Z,27.73
2022-12-07T17:07:24.259Z,27.65
2022-12-07T17:09:55.098Z,26.05
2022-12-07T17:12:24.625Z,28.35
2022-12-07T17:15:14.943Z,26.58
2022-12-07T17:17:53.901Z,29.02
2022-12-07T17:20:24.113Z,27.48
2022-12-07T17:22:53.166Z,28.67
2022-12-07T17:25:22.556Z,28.23
2022-12-07T17:27:52.310Z,28.40
2022-12-07T17:30:21.308Z,27.52
2022-12-07T17:32:53.374Z,28.38
2022-12-07T17:35:23.104Z,29.00
2022-12-07T17:37:52.863Z,27.67
2022-12-07T17:40:21.669Z,27.08
2022-12-07T17:42:52.567Z,27.83
2022-12-07T17:45:21.514Z,28.20
2022-12-07T17:47:50.223Z,28.25
2022-12-07T17:50:38.905Z,27.27
2022-12-07T17:53:12.743Z,26.63
2022-12-07T17:56:19.731Z,29.02
2022-12-07T17:58:30.853Z,27.85
2022-12-07T18:00:59.863Z,28.08
2022-12-07T18:03:28.951Z,28.13
2022-12-07T18:05:57.630Z,27.63
2022-12-07T18:08:26.910Z,27.60
2022-12-07T18:11:00.804Z,29.58
2022-12-07T18:13:39.070Z,28.98
2022-12-07T18:16:23.369Z,28.88
2022-12-07T18:18:57.856Z,28.52
2022-12-07T18:21:27.872Z,29.45
2022-12-07T18:23:59.202Z,28.90
2022-12-07T18:26:32.512Z,27.98
2022-12-07T18:29:01.707Z,30.25
2022-12-07T18:31:30.608Z,29.52
2022-12-07T18:34:05.866Z,29.05
2022-12-07T18:36:35.130Z,28.77
2022-12-07T18:39:08.128Z,30.63
2022-12-07T18:41:37.473Z,29.15
2022-12-07T18:44:06.660Z,29.33
2022-12-07T18:46:36.016Z,30.27
2022-12-07T18:49:05.108Z,28.27
2022-12-07T18:51:34.019Z,27.77
2022-12-07T18:54:03.464Z,29.77
2022-12-07T18:56:32.879Z,30.35
2022-12-07T18:59:21.265Z,28.70
2022-12-07T19:01:52.790Z,28.60
2022-12-07T19:04:21.900Z,28.67
2022-12-07T19:06:51.446Z,29.52
2022-12-07T19:09:20.894Z,29.17
2022-12-07T19:11:50.505Z,29.33
2022-12-07T19:14:45.709Z,29.30
2022-12-07T19:17:15.196Z,29.40
2022-12-07T19:19:46.008Z,30.05
2022-12-07T19:22:17.665Z,29.25
2022-12-07T19:24:49.125Z,28.38
2022-12-07T19:27:18.286Z,30.10
2022-12-07T19:29:47.347Z,30.92
2022-12-07T19:32:16.880Z,29.58
2022-12-07T19:34:47.037Z,30.70
2022-12-07T19:37:16.506Z,29.92
2022-12-07T19:39:47.150Z,29.35
2022-12-07T19:42:16.734Z,31.55
2022-12-07T19:44:52.822Z,30.73
2022-12-07T19:47:22.280Z,29.42
2022-12-07T19:49:52.828Z,30.25
2022-12-07T19:52:23.457Z,29.80
2022-12-07T19:54:52.772Z,29.80
2022-12-07T19:57:22.054Z,29.17
2022-12-07T19:59:51.302Z,29.38
2022-12-07T20:02:20.681Z,28.88
2022-12-07T20:04:49.571Z,29.33
2022-12-07T20:07:18.787Z,28.55
2022-12-07T20:09:47.556Z,28.70
2022-12-07T20:12:34.669Z,28.63
2022-12-07T20:15:04.131Z,29.08
2022-12-07T20:17:34.041Z,28.38
2022-12-07T20:20:02.868Z,28.85
2022-12-07T20:22:32.080Z,28.48
2022-12-07T20:25:01.107Z,28.02
2022-12-07T20:27:30.759Z,27.92
2022-12-07T20:30:02.436Z,28.30
2022-12-07T20:32:31.232Z,27.25
2022-12-07T20:35:00.730Z,28.30
2022-12-07T20:37:29.933Z,28.25
2022-12-07T20:39:59.206Z,28.08
2022-12-07T20:42:37.611Z,27.23
2022-12-07T20:45:09.638Z,28.48
2022-12-07T20:47:39.461Z,27.83
2022-12-07T20:50:09.426Z,28.02
2022-12-07T20:52:38.891Z,26.85
2022-12-07T20:55:08.013Z,26.98
2022-12-07T20:57:37.008Z,27.13
2022-12-07T21:00:38.180Z,27.65
2022-12-07T21:03:07.600Z,27.13
2022-12-07T21:05:36.437Z,26.30
2022-12-07T21:08:05.387Z,26.52
2022-12-07T21:10:34.803Z,27.05
2022-12-07T21:13:04.059Z,26.02
2022-12-07T21:15:33.590Z,25.00
2022-12-07T21:18:07.435Z,25.85
2022-12-07T21:20:36.715Z,25.95
2022-12-07T21:23:05.402Z,25.75
2022-12-07T21:25:34.394Z,26.10
2022-12-07T21:28:03.119Z,25.52
2022-12-07T21:30:50.697Z,25.00
2022-12-07T21:33:21.258Z,24.13
2022-12-07T21:35:50.550Z,25.10
2022-12-07T21:38:19.872Z,23.35
2022-12-07T21:40:48.750Z,23.83
2022-12-07T21:43:17.438Z,24.63
2022-12-07T21:45:52.252Z,22.42
2022-12-07T21:48:21.109Z,23.45
2022-12-07T21:50:52.053Z,23.98
2022-12-07T21:53:21.271Z,23.23
2022-12-07T21:55:50.335Z,22.67
2022-12-07T21:58:19.101Z,24.05
2022-12-07T22:00:47.846Z,22.35
2022-12-07T22:03:17.429Z,22.70
2022-12-07T22:05:46.764Z,22.52
2022-12-07T22:08:15.745Z,22.90
2022-12-07T22:10:44.459Z,22.05
2022-12-07T22:13:13.185Z,22.63
2022-12-07T22:15:42.016Z,21.65
2022-12-07T22:18:11.012Z,20.30
2022-12-07T22:20:40.225Z,21.17
2022-12-07T22:23:09.232Z,22.00
2022-12-07T22:25:41.653Z,21.30
2022-12-07T22:28:10.972Z,21.50
2022-12-07T22:30:40.714Z,21.85
2022-12-07T22:33:09.997Z,21.23
2022-12-07T22:35:39.282Z,21.35
2022-12-07T22:38:14.052Z,20.55
2022-12-07T22:40:43.179Z,20.40
2022-12-07T22:43:12.368Z,21.17
2022-12-07T22:45:41.607Z,19.65
2022-12-07T22:48:10.928Z,20.30
2022-12-07T22:50:39.816Z,19.15
2022-12-07T22:53:08.564Z,19.33
2022-12-07T22:55:40.596Z,19.33
2022-12-07T22:58:09.862Z,18.88
2022-12-07T23:00:54.197Z,19.40
2022-12-07T23:03:24.390Z,19.90
2022-12-07T23:05:56.680Z,19.23
2022-12-07T23:08:25.644Z,19.35
2022-12-07T23:10:56.909Z,18.65
2022-12-07T23:13:37.423Z,17.35
2022-12-07T23:16:11.014Z,19.08
2022-12-07T23:18:40.510Z,18.42
2022-12-07T23:21:09.458Z,18.45
2022-12-07T23:23:38.209Z,18.38
2022-12-07T23:26:08.063Z,17.50
2022-12-07T23:28:37.689Z,18.02
2022-12-07T23:31:12.516Z,17.80
2022-12-07T23:33:41.711Z,18.02
2022-12-07T23:36:11.364Z,16.92
2022-12-07T23:38:40.466Z,17.13
2022-12-07T23:41:16.329Z,17.67
2022-12-07T23:43:45.223Z,17.42
2022-12-07T23:46:19.093Z,16.73
2022-12-07T23:48:50.367Z,15.88
2022-12-07T23:51:20.206Z,16.92
2022-12-07T23:53:51.003Z,16.73
2022-12-07T23:56:22.123Z,16.50
2022-12-07T23:58:51.257Z,15.60
